Hauptseite
METAR-TAF:

METAR-TAF

Flughäfen :

Flughafen VC Bird International

Antigua, Antigua und Barbuda

Breite: 17-07N, Länge: 061-47W, Höhe: 8 m

Beobachtung

Neuester Wetterbericht von vor 1 Stunde und 1 Minuten, um 10:00 UTC
Wind 13 kt aus Ost
Temperatur 26°C
Luftfeuchtigkeit 79%
Luftdruck 1014 hPa
Sichtweite 10 km oder mehr
Aufgelockert bewölkt in der Höhe von 1600 ft

METAR: TAPA 181000Z 09013KT 9999 SCT016 26/22 Q1014 NOSIG

Zeit: 07:01 (11:01 UTC)

Prognose

Neuester Wetterbericht von vor 6 Stunden und 1 Minuten, um 05:00 UTC
Gültige Prognose vom 18 um 06 UTC bis 19 um 06 UTC
Wind 12 kt aus Ost
Sichtweite 10 km oder mehr
Aufgelockert bewölkt in der Höhe von 2000 ft

TAF: TAPA 180500Z 1806/1906 09012KT 9999 SCT020

Wetterbeobachtungen und Prognosen von mehr als 4000 Flughäfen (METAR und TAF Bericht).

Die verfügbaren Stationen werden durch gelbe und rote Markierungen auf der Karte dargestellt.

Führen Sie die Maus auf sie, um den Namen der Station zu sehen.

Darauf klicken, um die Beobachtung von Wetterbeobachtungen und Prognosen zu sehen.

Um die Karte zu ändern : klicken Sie auf den grünen Tasten mit einem schwarzen Kreuz Zum Vergrößern, auf den grünen Button mit einem Gedankenstrich zu verkleinern, oder auf die grünen Pfeile für benachbarte Karten.


METAR-TAF: